Gladstone, Alberta

Past 24 Hour Conditions

Date / Time
(MDT)
Conditions Temp
(°C)
Humidity
(%)
Dew Point
(°C)
Wind
(km/h)
Pressure
(kPa)
Visibility
(km)
18 April 2015
9:00 N/A 4 73 0 26 N/A N/A
8:00 N/A 3 76 -1 21 N/A N/A
7:00 N/A 2   77 -1 18 N/A N/A
6:00 N/A 2   79 -1 19 N/A N/A
5:00 N/A 3 77 -1 21 N/A N/A
4:00 N/A 4 73 -1 23 N/A N/A
3:00 N/A 5 71 0 23 N/A N/A
2:00 N/A 5 82 2 9 N/A N/A
1:00 N/A 3 91 2 9 N/A N/A
00:00 N/A 4 91 2 9 N/A N/A
17 April 2015
23:00 N/A 4 93 3 10 N/A N/A
22:00 N/A 5 90 3 8 N/A N/A
21:00 N/A 6 86 4 14 N/A N/A
20:00 N/A 8 82 5 37 N/A N/A
19:00 N/A 15 38 1 6 N/A N/A
18:00 N/A 16   30 -2 23 N/A N/A
17:00 N/A 16   28 -2 11 N/A N/A
16:00 N/A 16   28 -2 19 N/A N/A
15:00 N/A 15 28 -4 23 N/A N/A
14:00 N/A 15 26 -5 33 N/A N/A
13:00 N/A 14 26 -5 36 N/A N/A
12:00 N/A 12 31 -4 25 N/A N/A
11:00 N/A 11 40 -2 20 N/A N/A
10:00 N/A 9 51 -1 19 N/A N/A
9:00 N/A 6 68 0 15 N/A N/A
N/A Not available
↑ Highest temperature
↓ Lowest temperature

If you require additional historical weather information, please visit Climate Data Online.

What we are doing

Date modified: